Time;durP1;ratioP1;P1;durP2;ratioP2;P2;SDS_P1;SDS_P2;PMS_P1;PMS_P2;Temp;Humidity;BMP_temperature;BMP_pressure;BME280_temperature;BME280_humidity;BME280_pressure;Samples;Min_cycle;Max_cycle;Signal;HPM_P1;HPM_P2
2022/03/09 00:01:26;;;;;;;12.30;6.97;;;;;;;-3.04;100.00;98872.86;1625629;87;21484;-70
2022/03/09 00:03:53;;;;;;;12.07;6.93;;;;;;;-3.02;100.00;98857.72;1651849;86;21107;-71
2022/03/09 00:06:20;;;;;;;14.57;7.33;;;;;;;-3.04;100.00;98841.61;1652101;85;21098;-70
2022/03/09 00:08:47;;;;;;;12.10;7.27;;;;;;;-3.04;100.00;98821.29;1604393;87;21520;-70
2022/03/09 00:11:16;;;;;;;13.37;7.43;;;;;;;-3.03;100.00;98808.90;1625633;87;21611;-70
2022/03/09 00:13:44;;;;;;;14.77;8.30;;;;;;;-3.04;100.00;98731.37;1657440;86;21061;-71
2022/03/09 00:16:10;;;;;;;19.90;10.83;;;;;;;-3.02;100.00;98491.91;1685623;85;21539;-70
2022/03/09 00:18:40;;;;;;;23.40;11.63;;;;;;;-3.03;100.00;98480.47;1685390;85;21152;-71
2022/03/09 00:21:08;;;;;;;21.97;12.70;;;;;;;-3.02;100.00;98467.63;1685362;85;21544;-70
2022/03/09 00:23:35;;;;;;;21.77;12.10;;;;;;;-3.03;100.00;98461.13;1682986;85;21045;-71
2022/03/09 00:26:02;;;;;;;21.83;11.47;;;;;;;-3.04;100.00;98452.86;1689353;85;21022;-71
2022/03/09 00:28:29;;;;;;;23.80;12.47;;;;;;;-3.04;100.00;98456.83;1689541;85;21002;-71
2022/03/09 00:30:58;;;;;;;23.77;13.30;;;;;;;-3.03;100.00;98454.03;1683787;85;21503;-71
2022/03/09 00:33:25;;;;;;;23.20;13.77;;;;;;;-3.02;100.00;98454.40;1689502;85;21579;-71
2022/03/09 00:35:53;;;;;;;25.00;14.30;;;;;;;-3.02;100.00;98453.08;1689310;85;21054;-71
2022/03/09 00:38:20;;;;;;;37.87;23.90;;;;;;;-3.04;100.00;98453.69;1689276;85;21547;-71
2022/03/09 00:40:48;;;;;;;53.63;35.17;;;;;;;-3.06;100.00;98451.66;1683843;85;21034;-71
2022/03/09 00:43:15;;;;;;;189.97;89.23;;;;;;;-3.08;100.00;98454.42;1683990;85;21094;-71
2022/03/09 00:45:43;;;;;;;60.07;36.37;;;;;;;-3.07;100.00;98453.92;1689548;84;21152;-70
2022/03/09 00:48:10;;;;;;;32.27;19.87;;;;;;;-3.05;100.00;98455.96;1689371;85;21554;-71
2022/03/09 00:50:37;;;;;;;33.27;22.50;;;;;;;-3.03;100.00;98454.03;1689614;85;21117;-71
2022/03/09 00:53:04;;;;;;;24.27;15.10;;;;;;;-3.02;100.00;98455.72;1689201;84;21105;-70
2022/03/09 00:55:34;;;;;;;50.20;28.93;;;;;;;-3.05;100.00;98455.96;1689576;85;21535;-71
2022/03/09 00:58:01;;;;;;;28.40;20.63;;;;;;;-3.04;100.00;98463.44;1683548;85;21091;-71
2022/03/09 01:00:29;;;;;;;27.80;20.20;;;;;;;-3.07;100.00;98460.54;1661157;85;21081;-71
2022/03/09 01:02:56;;;;;;;20.30;13.23;;;;;;;-3.11;100.00;98465.23;1683587;84;21081;-71
2022/03/09 01:05:24;;;;;;;26.40;15.90;;;;;;;-3.13;100.00;98467.66;1689577;84;21069;-71
2022/03/09 01:07:52;;;;;;;28.23;17.07;;;;;;;-3.13;100.00;98467.66;1683907;85;21062;-70
2022/03/09 01:10:19;;;;;;;36.67;24.57;;;;;;;-3.14;100.00;98474.72;1689627;84;21021;-71
2022/03/09 01:12:47;;;;;;;47.93;35.80;;;;;;;-3.17;100.00;98478.09;1689428;85;21089;-71
2022/03/09 01:15:14;;;;;;;22.20;12.90;;;;;;;-3.19;100.00;98469.45;1683853;85;21507;-71
2022/03/09 01:17:41;;;;;;;25.47;16.43;;;;;;;-3.23;100.00;98475.95;1689414;85;21539;-70
2022/03/09 01:20:10;;;;;;;33.10;21.17;;;;;;;-3.25;100.00;98487.48;1689676;85;21073;-71
2022/03/09 01:22:37;;;;;;;29.30;19.23;;;;;;;-3.29;100.00;98486.05;1689658;84;21022;-71
2022/03/09 01:25:06;;;;;;;25.50;16.40;;;;;;;-3.29;100.00;98485.22;1683903;85;21069;-71
2022/03/09 01:27:33;;;;;;;29.30;17.37;;;;;;;-3.28;100.00;98478.95;1689708;85;21037;-71
2022/03/09 01:30:01;;;;;;;24.70;13.43;;;;;;;-3.26;100.00;98486.27;1683608;85;21085;-71
2022/03/09 01:32:28;;;;;;;25.43;15.90;;;;;;;-3.24;100.00;98479.06;1689802;85;21559;-70
2022/03/09 01:34:56;;;;;;;23.90;14.77;;;;;;;-3.23;100.00;98491.33;1683711;85;21540;-71
2022/03/09 01:37:23;;;;;;;23.20;14.23;;;;;;;-3.23;100.00;98495.78;1689579;85;21034;-71
2022/03/09 01:39:50;;;;;;;24.63;14.47;;;;;;;-3.26;100.00;98498.17;1689433;85;21042;-71
2022/03/09 01:42:17;;;;;;;22.70;13.73;;;;;;;-3.30;100.00;98496.25;1683841;85;21077;-71
2022/03/09 01:44:45;;;;;;;24.23;14.60;;;;;;;-3.32;100.00;98503.47;1660996;85;21554;-71
2022/03/09 01:47:12;;;;;;;25.67;15.00;;;;;;;-3.34;100.00;98509.85;1689729;85;21034;-71
2022/03/09 01:49:40;;;;;;;27.43;16.50;;;;;;;-3.36;100.00;98509.97;1689599;85;21089;-70
2022/03/09 01:52:07;;;;;;;28.77;17.77;;;;;;;-3.36;100.00;98511.78;1684105;85;21089;-71
2022/03/09 01:54:34;;;;;;;29.33;17.00;;;;;;;-3.37;100.00;98516.20;1689649;85;21065;-71
2022/03/09 01:57:02;;;;;;;29.67;17.67;;;;;;;-3.39;100.00;98519.45;1683988;84;21062;-72
2022/03/09 01:59:29;;;;;;;26.83;16.40;;;;;;;-3.39;100.00;98519.45;1683763;85;21010;-69
2022/03/09 02:01:57;;;;;;;30.93;18.67;;;;;;;-3.38;100.00;98521.15;1689450;84;21085;-70
2022/03/09 02:04:25;;;;;;;31.37;18.20;;;;;;;-3.37;100.00;98517.52;1683790;85;21057;-71
2022/03/09 02:06:53;;;;;;;32.60;18.57;;;;;;;-3.36;100.00;98519.22;1683820;85;21046;-72
2022/03/09 02:14:49;;;;;;;26.57;15.50;;;;;;;-3.42;100.00;98526.78;1632328;88;21033;-71
2022/03/09 02:17:23;;;;;;;25.87;15.03;;;;;;;-3.40;100.00;98530.14;1606446;88;21676;-70
2022/03/09 02:19:51;;;;;;;24.27;13.90;;;;;;;-3.38;100.00;98529.08;1606626;88;21075;-70
2022/03/09 02:22:41;;;;;;;23.57;14.67;;;;;;;-3.36;100.00;98529.80;1606270;86;21093;-69
2022/03/09 02:25:15;;;;;;;24.73;14.83;;;;;;;-3.36;100.00;98530.28;1611229;88;21102;-71
2022/03/09 02:27:43;;;;;;;26.80;15.97;;;;;;;-3.36;100.00;98528.96;1611224;86;21056;-71
2022/03/09 02:30:15;;;;;;;23.60;14.93;;;;;;;-3.37;100.00;98525.45;1611579;88;21081;-70
2022/03/09 02:32:44;;;;;;;26.80;16.03;;;;;;;-3.38;100.00;98525.11;1611100;88;21097;-71
2022/03/09 02:35:12;;;;;;;27.00;16.67;;;;;;;-3.37;100.00;98524.63;1590042;88;21482;-70
2022/03/09 02:37:39;;;;;;;25.67;15.97;;;;;;;-3.36;100.00;98533.75;1611159;88;21053;-71
2022/03/09 02:40:14;;;;;;;27.23;17.60;;;;;;;-3.38;100.00;98531.72;1636996;88;21056;-71
2022/03/09 02:42:43;;;;;;;31.53;19.57;;;;;;;-3.35;100.00;98535.91;1637342;88;21061;-71
2022/03/09 02:45:11;;;;;;;31.87;19.20;;;;;;;-3.33;100.00;98536.63;1637345;88;21025;-71
2022/03/09 02:47:42;;;;;;;30.57;19.13;;;;;;;-3.33;100.00;98540.59;1637381;88;21061;-70
2022/03/09 02:50:09;;;;;;;33.33;19.70;;;;;;;-3.33;100.00;98538.81;1611060;88;21053;-72
2022/03/09 02:55:07;;;;;;;32.73;20.53;;;;;;;-3.30;100.00;98540.36;1600012;90;21122;-71
2022/03/09 02:57:35;;;;;;;31.83;20.43;;;;;;;-3.30;100.00;98546.48;1550246;91;21054;-70
2022/03/09 03:00:07;;;;;;;34.93;21.80;;;;;;;-3.28;100.00;98545.87;1564486;90;21046;-71
2022/03/09 03:02:37;;;;;;;35.15;21.87;;;;;;;-3.28;100.00;98543.23;1570313;91;21615;-70
2022/03/09 03:05:06;;;;;;;34.57;19.40;;;;;;;-3.28;100.00;98547.69;1521369;94;21063;-72
2022/03/09 03:07:33;;;;;;;34.50;21.33;;;;;;;-3.29;100.00;98544.21;1522536;94;21061;-71
2022/03/09 03:10:00;;;;;;;42.00;24.13;;;;;;;-3.28;100.00;98550.33;1502875;94;21045;-70
2022/03/09 03:12:27;;;;;;;44.83;23.60;;;;;;;-3.27;100.00;98552.02;1588494;90;21077;-71
2022/03/09 03:14:54;;;;;;;32.20;19.73;;;;;;;-3.29;100.00;98550.81;1594413;90;21093;-71
2022/03/09 03:17:21;;;;;;;35.13;21.03;;;;;;;-3.29;100.00;98555.27;1594479;90;21069;-71
2022/03/09 03:19:48;;;;;;;31.90;21.13;;;;;;;-3.32;100.00;98548.89;1572667;88;21042;-71
2022/03/09 03:22:15;;;;;;;35.97;21.80;;;;;;;-3.34;100.00;98558.27;1572554;90;21125;-71
2022/03/09 03:24:44;;;;;;;33.40;21.93;;;;;;;-3.35;100.00;98559.21;1566607;90;21186;-70
2022/03/09 03:27:12;;;;;;;37.83;23.67;;;;;;;-3.38;100.00;98555.97;1587594;90;21058;-71
2022/03/09 03:29:39;;;;;;;36.17;22.40;;;;;;;-3.42;100.00;98561.14;1587196;90;21050;-71
2022/03/09 03:32:10;;;;;;;39.70;24.73;;;;;;;-3.46;100.00;98557.41;1565836;90;21106;-70
2022/03/09 03:34:37;;;;;;;42.33;25.33;;;;;;;-3.47;100.00;98562.80;1587260;90;21173;-71
2022/03/09 03:37:05;;;;;;;40.47;24.33;;;;;;;-3.52;100.00;98562.34;1587246;89;21082;-71
2022/03/09 03:39:33;;;;;;;39.83;24.17;;;;;;;-3.59;100.00;98571.67;1565923;90;21094;-71
2022/03/09 03:42:00;;;;;;;36.83;21.83;;;;;;;-3.65;100.00;98571.67;1587597;90;21578;-70
2022/03/09 03:44:27;;;;;;;37.70;22.40;;;;;;;-3.64;100.00;98572.88;1587462;90;21069;-71
2022/03/09 03:46:54;;;;;;;35.40;20.90;;;;;;;-3.64;100.00;98570.23;1587594;90;21655;-71
2022/03/09 03:49:21;;;;;;;34.30;20.83;;;;;;;-3.62;100.00;98567.48;1566092;90;21027;-71
2022/03/09 03:51:49;;;;;;;38.63;22.30;;;;;;;-3.62;100.00;98570.13;1577282;90;21590;-71
2022/03/09 03:54:16;;;;;;;39.17;23.80;;;;;;;-3.64;100.00;98563.62;1565003;92;21096;-71
2022/03/09 03:56:45;;;;;;;42.50;26.23;;;;;;;-3.63;100.00;98566.64;1565419;92;21550;-71
2022/03/09 03:59:12;;;;;;;41.37;25.70;;;;;;;-3.62;100.00;98572.27;1566465;92;21593;-71
2022/03/09 04:01:39;;;;;;;43.43;26.27;;;;;;;-3.61;100.00;98569.17;1617757;85;21023;-71
2022/03/09 04:04:06;;;;;;;41.27;25.40;;;;;;;-3.59;100.00;98569.89;1649070;85;21509;-71
2022/03/09 04:06:33;;;;;;;36.80;23.47;;;;;;;-3.59;100.00;98575.17;1688930;85;21059;-70
2022/03/09 04:09:00;;;;;;;34.70;20.83;;;;;;;-3.58;100.00;98575.52;1648411;86;21007;-72
2022/03/09 04:11:28;;;;;;;33.57;18.23;;;;;;;-3.57;100.00;98579.03;1656692;86;21085;-69
2022/03/09 04:13:55;;;;;;;29.47;18.00;;;;;;;-3.60;100.00;98576.61;1642922;86;21061;-72
2022/03/09 04:16:24;;;;;;;30.07;18.60;;;;;;;-3.63;100.00;98578.53;1657107;86;21567;-70
2022/03/09 04:18:52;;;;;;;30.33;18.23;;;;;;;-3.66;100.00;98583.21;1674474;86;21046;-70
2022/03/09 04:21:19;;;;;;;31.77;19.23;;;;;;;-3.68;100.00;98583.81;1674283;85;21070;-71
2022/03/09 04:23:46;;;;;;;33.27;19.53;;;;;;;-3.71;100.00;98583.55;1672324;84;21073;-71
2022/03/09 04:26:14;;;;;;;31.53;18.57;;;;;;;-3.71;100.00;98587.52;1669617;86;21543;-71
2022/03/09 04:28:41;;;;;;;32.80;19.53;;;;;;;-3.70;100.00;98585.25;1658074;86;21058;-71
2022/03/09 04:31:09;;;;;;;31.43;18.87;;;;;;;-3.69;100.00;98590.04;1657879;86;21066;-70
2022/03/09 04:33:36;;;;;;;31.03;18.67;;;;;;;-3.70;100.00;98597.13;1669757;86;21050;-71
2022/03/09 04:36:05;;;;;;;32.13;19.37;;;;;;;-3.68;100.00;98593.89;1658063;86;21537;-71
2022/03/09 04:38:33;;;;;;;33.90;20.10;;;;;;;-3.67;100.00;98590.77;1658259;86;20983;-72
2022/03/09 04:41:01;;;;;;;34.57;21.37;;;;;;;-3.67;100.00;98590.77;1669625;85;21082;-71
2022/03/09 04:43:28;;;;;;;46.50;28.87;;;;;;;-3.70;100.00;98598.91;1669828;86;21090;-70
2022/03/09 04:45:56;;;;;;;36.13;22.17;;;;;;;-3.71;100.00;98601.20;1669965;86;21030;-71
2022/03/09 04:48:23;;;;;;;33.60;20.50;;;;;;;-3.73;100.00;98605.77;1670052;85;21011;-71
2022/03/09 04:50:51;;;;;;;34.93;20.80;;;;;;;-3.76;100.00;98608.63;1657993;86;21023;-71
2022/03/09 04:53:18;;;;;;;36.37;21.23;;;;;;;-3.77;100.00;98613.54;1669998;85;21511;-71
2022/03/09 04:55:45;;;;;;;35.73;21.50;;;;;;;-3.78;100.00;98615.84;1669788;85;21548;-70
2022/03/09 04:58:12;;;;;;;35.20;21.27;;;;;;;-3.77;100.00;98618.83;1658222;86;21552;-70
2022/03/09 05:00:40;;;;;;;33.60;20.17;;;;;;;-3.77;100.00;98622.33;1669770;86;21057;-71
2022/03/09 05:03:07;;;;;;;32.43;19.20;;;;;;;-3.79;100.00;98621.58;1658093;86;21577;-71
2022/03/09 05:05:35;;;;;;;34.20;20.53;;;;;;;-3.83;100.00;98626.25;1669862;86;21026;-71
2022/03/09 05:08:02;;;;;;;34.67;20.07;;;;;;;-3.82;100.00;98633.72;1669980;86;21046;-70
2022/03/09 05:10:29;;;;;;;32.50;19.60;;;;;;;-3.82;100.00;98635.03;1651486;85;21542;-71
2022/03/09 05:12:58;;;;;;;35.37;19.90;;;;;;;-3.81;100.00;98635.38;1661644;85;21590;-70
2022/03/09 05:15:25;;;;;;;37.13;21.13;;;;;;;-3.81;100.00;98636.70;1660882;85;21022;-70
2022/03/09 05:17:52;;;;;;;37.07;21.87;;;;;;;-3.86;100.00;98642.34;1661588;85;21026;-70
2022/03/09 05:22:49;;;;;;;35.73;22.00;;;;;;;-3.88;100.00;98652.64;1632573;87;21611;-71
2022/03/09 05:25:16;;;;;;;37.37;21.47;;;;;;;-3.90;100.00;98655.39;1632489;86;21511;-72
2022/03/09 05:27:43;;;;;;;35.43;21.30;;;;;;;-3.90;100.00;98665.95;1632725;88;21038;-71
2022/03/09 05:30:11;;;;;;;36.13;20.00;;;;;;;-3.91;100.00;98664.29;1632505;88;21610;-71
2022/03/09 05:32:39;;;;;;;32.90;19.33;;;;;;;-3.89;100.00;98667.66;1632792;88;21125;-70
2022/03/09 05:35:08;;;;;;;32.07;18.63;;;;;;;-3.87;100.00;98667.55;1632656;88;21019;-71
2022/03/09 05:37:40;;;;;;;31.07;18.93;;;;;;;-3.87;100.00;98663.59;1632598;88;21103;-71
2022/03/09 05:40:09;;;;;;;28.90;16.97;;;;;;;-3.87;100.00;98671.02;1632420;88;21102;-71
2022/03/09 05:42:37;;;;;;;29.43;17.33;;;;;;;-3.87;100.00;98671.51;1632573;88;21539;-71
2022/03/09 05:45:07;;;;;;;30.27;17.57;;;;;;;-3.88;100.00;98673.77;1632305;88;21062;-71
2022/03/09 05:47:35;;;;;;;29.43;16.33;;;;;;;-3.86;100.00;98673.17;1632498;88;21023;-72
2022/03/09 05:50:05;;;;;;;28.80;16.87;;;;;;;-3.84;100.00;98674.77;1635090;88;21106;-72
2022/03/09 05:52:32;;;;;;;31.00;17.27;;;;;;;-3.79;100.00;98688.10;1632998;88;21087;-71
2022/03/09 05:54:59;;;;;;;28.87;16.77;;;;;;;-3.73;100.00;98683.70;1632754;88;21059;-71
2022/03/09 05:57:26;;;;;;;29.80;17.80;;;;;;;-3.74;100.00;98682.84;1632636;88;21047;-70
2022/03/09 05:59:54;;;;;;;30.90;18.43;;;;;;;-3.78;100.00;98683.20;1610953;88;21756;-70
2022/03/09 06:02:21;;;;;;;32.50;20.20;;;;;;;-3.79;100.00;98695.53;1632451;88;21051;-69
2022/03/09 06:04:48;;;;;;;32.30;19.37;;;;;;;-3.81;100.00;98689.53;1632570;88;21085;-70
2022/03/09 06:07:15;;;;;;;28.80;16.93;;;;;;;-3.80;100.00;98704.44;1632380;88;21113;-70
2022/03/09 06:09:43;;;;;;;30.10;17.33;;;;;;;-3.80;100.00;98701.80;1635188;87;21582;-70
2022/03/09 06:12:11;;;;;;;27.70;16.97;;;;;;;-3.80;100.00;98699.64;1610979;87;21021;-71
2022/03/09 06:14:38;;;;;;;28.77;17.43;;;;;;;-3.77;100.00;98699.39;1636819;88;21052;-71
2022/03/09 06:17:08;;;;;;;33.20;21.67;;;;;;;-3.75;100.00;98699.66;1637121;88;21088;-69
2022/03/09 06:19:35;;;;;;;35.23;21.17;;;;;;;-3.78;100.00;98701.20;1660563;85;21071;-72
2022/03/09 06:22:03;;;;;;;36.47;23.00;;;;;;;-3.78;100.00;98702.52;1651209;87;21080;-70
2022/03/09 06:24:31;;;;;;;29.87;18.10;;;;;;;-3.75;100.00;98694.83;1688514;85;21529;-71
2022/03/09 06:26:59;;;;;;;31.17;20.20;;;;;;;-3.73;100.00;98696.42;1664531;85;21110;-70
2022/03/09 06:29:26;;;;;;;34.93;21.50;;;;;;;-3.67;100.00;98695.12;1665005;85;21083;-70
2022/03/09 06:31:53;;;;;;;32.20;19.00;;;;;;;-3.60;100.00;98693.70;1692200;84;21055;-69
2022/03/09 06:34:21;;;;;;;30.83;19.10;;;;;;;-3.53;100.00;98696.73;1692335;84;21067;-70
2022/03/09 06:36:51;;;;;;;43.47;25.40;;;;;;;-3.49;100.00;98690.25;1664968;85;21093;-71
2022/03/09 06:39:20;;;;;;;33.23;20.03;;;;;;;-3.50;100.00;98696.03;1649652;86;21024;-70
2022/03/09 06:41:48;;;;;;;32.63;19.00;;;;;;;-3.49;100.00;98690.25;1646805;86;21076;-70
2022/03/09 06:44:15;;;;;;;31.30;18.20;;;;;;;-3.52;100.00;98700.59;1659888;86;21104;-70
2022/03/09 06:46:42;;;;;;;41.93;25.70;;;;;;;-3.48;100.00;98694.11;1659850;86;21053;-71
2022/03/09 06:49:10;;;;;;;52.53;28.33;;;;;;;-3.41;100.00;98692.34;1659725;86;21033;-71
2022/03/09 06:51:37;;;;;;;42.47;24.43;;;;;;;-3.35;100.00;98694.51;1674281;86;21060;-69
2022/03/09 06:54:04;;;;;;;34.00;19.83;;;;;;;-3.28;100.00;98697.05;1647074;86;21032;-70
2022/03/09 06:56:31;;;;;;;28.07;16.10;;;;;;;-3.29;100.00;98696.21;1689312;85;21493;-71
2022/03/09 06:58:58;;;;;;;25.77;15.10;;;;;;;-3.34;100.00;98694.88;1695474;83;21485;-71
2022/03/09 07:01:25;;;;;;;29.43;16.97;;;;;;;-3.43;100.00;98696.42;1701540;83;21035;-71
2022/03/09 07:03:54;;;;;;;42.07;25.60;;;;;;;-3.51;100.00;98696.97;1682841;83;21079;-70
2022/03/09 07:06:21;;;;;;;27.80;17.23;;;;;;;-3.49;100.00;98690.25;1659740;85;21076;-71
2022/03/09 07:08:49;;;;;;;31.73;18.80;;;;;;;-3.44;100.00;98690.75;1663720;85;22376;-69
2022/03/09 07:11:16;;;;;;;28.97;17.37;;;;;;;-3.44;100.00;98692.91;1686112;85;21499;-70
2022/03/09 07:13:45;;;;;;;30.77;17.73;;;;;;;-3.40;100.00;98687.40;1637706;86;21062;-70
2022/03/09 07:16:12;;;;;;;27.53;17.07;;;;;;;-3.41;100.00;98689.70;1676397;85;21032;-70
2022/03/09 07:18:39;;;;;;;33.63;20.73;;;;;;;-3.40;100.00;98682.95;1691374;84;21033;-70
2022/03/09 07:21:06;;;;;;;38.70;23.47;;;;;;;-3.36;100.00;98680.95;1683185;85;21473;-71
2022/03/09 07:23:34;;;;;;;31.93;20.33;;;;;;;-3.34;100.00;98675.06;1659849;85;21583;-70
2022/03/09 07:26:02;;;;;;;29.77;17.37;;;;;;;-3.32;100.00;98673.97;1625840;87;21010;-69
2022/03/09 07:28:29;;;;;;;31.70;17.33;;;;;;;-3.28;100.00;98675.41;1656442;84;21046;-69
2022/03/09 07:30:57;;;;;;;29.07;17.10;;;;;;;-3.24;100.00;98662.80;1679380;85;21081;-70
2022/03/09 07:33:24;;;;;;;42.73;20.67;;;;;;;-3.26;100.00;98664.27;1672895;85;21023;-71
2022/03/09 07:35:52;;;;;;;28.57;18.00;;;;;;;-3.28;100.00;98673.25;1659614;85;21067;-70
2022/03/09 07:38:20;;;;;;;29.27;16.93;;;;;;;-3.30;100.00;98675.17;1664684;82;21083;-70
2022/03/09 07:40:47;;;;;;;35.03;19.10;;;;;;;-3.26;100.00;98676.16;1677050;83;21059;-70
2022/03/09 07:43:14;;;;;;;32.30;18.10;;;;;;;-3.19;100.00;98684.44;1685391;85;21087;-70
2022/03/09 07:45:42;;;;;;;29.13;17.30;;;;;;;-3.19;100.00;98688.90;1683923;85;21075;-72
2022/03/09 07:48:09;;;;;;;34.87;19.53;;;;;;;-3.19;100.00;98688.90;1683684;85;21071;-72
2022/03/09 07:50:36;;;;;;;32.23;17.70;;;;;;;-3.16;100.00;98704.05;1632200;87;21084;-71
2022/03/09 07:53:04;;;;;;;27.33;15.77;;;;;;;-3.14;100.00;98716.67;1634708;87;21035;-71
2022/03/09 07:55:31;;;;;;;33.33;18.77;;;;;;;-3.15;100.00;98733.51;1640403;86;20977;-72
2022/03/09 07:57:59;;;;;;;30.07;17.40;;;;;;;-3.14;100.00;98748.40;1696964;82;21074;-70
2022/03/09 08:00:27;;;;;;;31.43;18.33;;;;;;;-3.09;100.00;98759.47;1683240;85;21046;-72
2022/03/09 08:02:54;;;;;;;30.87;17.17;;;;;;;-3.04;100.00;98778.97;1655174;85;21525;-72
2022/03/09 08:05:21;;;;;;;29.03;17.00;;;;;;;-2.95;100.00;98793.31;1683268;85;21859;-72
2022/03/09 08:07:48;;;;;;;28.93;18.50;;;;;;;-2.95;100.00;98813.14;1623568;88;21091;-73
2022/03/09 08:10:16;;;;;;;27.10;17.10;;;;;;;-2.92;100.00;98834.05;1634578;87;22248;-71
2022/03/09 08:12:43;;;;;;;29.20;18.97;;;;;;;-2.95;100.00;98852.34;1612891;88;21092;-72
2022/03/09 08:15:11;;;;;;;30.00;20.70;;;;;;;-2.92;100.00;98869.31;1620457;85;21088;-71
2022/03/09 08:17:38;;;;;;;25.63;16.63;;;;;;;-2.87;100.00;98883.50;1679136;85;21037;-70
2022/03/09 08:20:07;;;;;;;25.23;16.10;;;;;;;-2.87;100.00;98903.34;1664663;85;21599;-71
2022/03/09 08:22:34;;;;;;;29.03;18.17;;;;;;;-2.89;100.00;98919.32;1646073;86;21040;-71
2022/03/09 08:25:02;;;;;;;33.90;21.83;;;;;;;-2.98;100.00;98941.66;1650546;87;21068;-71
2022/03/09 08:27:29;;;;;;;33.50;21.10;;;;;;;-3.00;100.00;98952.34;1654546;85;21067;-70
2022/03/09 08:29:56;;;;;;;32.13;19.80;;;;;;;-2.97;100.00;98959.23;1654102;85;21116;-71
2022/03/09 08:32:24;;;;;;;32.27;19.80;;;;;;;-2.95;100.00;98967.89;1654206;85;21584;-71
2022/03/09 08:34:54;;;;;;;33.17;20.53;;;;;;;-2.95;100.00;98970.05;1629858;87;21593;-72
2022/03/09 08:37:20;;;;;;;39.90;27.23;;;;;;;-2.96;100.00;98976.28;1625763;87;21052;-72
2022/03/09 08:39:48;;;;;;;47.30;29.77;;;;;;;-2.93;100.00;98984.48;1652040;87;21104;-72
2022/03/09 08:42:16;;;;;;;36.43;23.93;;;;;;;-2.87;100.00;98982.25;1625530;87;21064;-71
2022/03/09 08:44:43;;;;;;;39.53;27.53;;;;;;;-2.79;100.00;98983.48;1625385;87;21004;-71
2022/03/09 08:47:10;;;;;;;55.03;40.57;;;;;;;-2.68;100.00;98980.89;1651600;87;21580;-69
2022/03/09 08:49:39;;;;;;;42.57;28.73;;;;;;;-2.58;100.00;98983.23;1625193;87;21017;-72
2022/03/09 08:52:08;;;;;;;46.13;28.77;;;;;;;-2.46;100.00;98981.48;1652166;87;21073;-70
2022/03/09 08:54:35;;;;;;;64.13;43.00;;;;;;;-2.37;100.00;98982.11;1643302;87;21053;-72
2022/03/09 08:57:04;;;;;;;54.77;36.60;;;;;;;-2.28;100.00;98987.20;1622936;87;21028;-71
2022/03/09 08:59:31;;;;;;;40.70;27.87;;;;;;;-2.22;100.00;98994.66;1626390;88;20957;-71
2022/03/09 09:01:59;;;;;;;36.90;23.37;;;;;;;-2.13;100.00;98996.61;1593922;89;21080;-72
2022/03/09 09:04:25;;;;;;;31.60;20.27;;;;;;;-2.05;100.00;98997.83;1593412;90;21142;-71
2022/03/09 09:06:52;;;;;;;30.80;20.33;;;;;;;-2.02;100.00;99018.34;1597672;90;21151;-70
2022/03/09 09:09:20;;;;;;;29.47;18.10;;;;;;;-2.00;100.00;99035.42;1593117;89;21106;-70
2022/03/09 09:11:47;;;;;;;26.43;16.93;;;;;;;-2.02;100.00;99050.14;1596826;88;21065;-71
2022/03/09 09:14:15;;;;;;;28.50;17.27;;;;;;;-2.03;100.00;99077.58;1671789;86;21544;-71
2022/03/09 09:16:43;;;;;;;28.03;17.90;;;;;;;-2.03;100.00;99095.28;1626088;87;21569;-72
2022/03/09 09:19:10;;;;;;;29.27;18.47;;;;;;;-2.07;100.00;99111.02;1656507;86;21087;-71
2022/03/09 09:21:38;;;;;;;30.33;19.47;;;;;;;-2.09;100.00;99121.72;1656336;86;21072;-71
2022/03/09 09:24:05;;;;;;;30.63;18.80;;;;;;;-2.12;100.00;99128.59;1656240;85;21063;-69
2022/03/09 09:26:32;;;;;;;28.93;18.50;;;;;;;-2.06;100.00;99132.59;1684014;85;21075;-71
2022/03/09 09:29:00;;;;;;;29.27;18.27;;;;;;;-2.01;100.00;99137.08;1684950;85;21067;-70
2022/03/09 09:31:27;;;;;;;30.37;18.60;;;;;;;-2.02;100.00;99147.29;1663733;85;21417;-71
2022/03/09 09:33:54;;;;;;;30.73;18.60;;;;;;;-2.01;100.00;99152.97;1640348;85;21080;-71
2022/03/09 09:36:21;;;;;;;29.57;18.20;;;;;;;-1.98;100.00;99160.21;1684201;85;21091;-70
2022/03/09 09:38:48;;;;;;;31.83;19.83;;;;;;;-2.00;100.00;99168.76;1684375;85;21043;-70
2022/03/09 09:41:18;;;;;;;33.77;21.43;;;;;;;-2.02;100.00;99178.63;1683974;85;21075;-69
2022/03/09 09:43:44;;;;;;;31.23;20.03;;;;;;;-2.00;100.00;99181.14;1684226;85;21048;-70
2022/03/09 09:46:13;;;;;;;31.63;20.63;;;;;;;-1.95;100.00;99189.14;1662778;85;21040;-69
2022/03/09 09:48:40;;;;;;;57.20;35.10;;;;;;;-1.92;100.00;99187.56;1661684;85;21026;-70
2022/03/09 09:51:08;;;;;;;40.50;25.83;;;;;;;-1.81;100.00;99187.27;1678211;85;21110;-70
2022/03/09 09:53:36;;;;;;;36.23;24.70;;;;;;;-1.73;100.00;99180.44;1649249;85;21045;-69
2022/03/09 09:56:06;;;;;;;34.43;22.63;;;;;;;-1.68;100.00;99196.47;1642406;87;21056;-71
2022/03/09 09:58:42;;;;;;;31.70;20.88;;;;;;;-1.65;100.00;99193.11;1642672;87;21525;-69
2022/03/09 10:01:10;;;;;;;149.45;54.48;;;;;;;-1.66;100.00;99199.88;1591369;90;21025;-68
2022/03/09 10:03:38;;;;;;;85.37;38.07;;;;;;;-1.75;100.00;99211.52;1591183;90;21171;-68
2022/03/09 10:06:06;;;;;;;35.17;20.77;;;;;;;-1.82;100.00;99217.39;1601226;89;21061;-70
2022/03/09 10:08:35;;;;;;;30.03;19.53;;;;;;;-1.88;100.00;99226.61;1590959;89;21526;-68
2022/03/09 10:11:04;;;;;;;35.60;23.67;;;;;;;-1.95;100.00;99224.91;1601932;90;21547;-69
2022/03/09 10:13:38;;;;;;;34.07;20.73;;;;;;;-1.97;100.00;99226.80;1601543;90;21122;-69
2022/03/09 10:16:20;;;;;;;31.23;20.17;;;;;;;-2.01;100.00;99218.72;1622334;86;21074;-69
2022/03/09 10:18:54;;;;;;;30.67;18.83;;;;;;;-2.01;100.00;99224.50;1631959;87;21054;-70
2022/03/09 10:21:26;;;;;;;32.78;19.95;;;;;;;-1.97;100.00;99217.52;1655132;87;21070;-70
2022/03/09 10:24:03;;;;;;;49.50;28.57;;;;;;;-1.89;100.00;99212.14;1609846;89;21071;-68
2022/03/09 10:26:40;;;;;;;47.43;26.13;;;;;;;-1.83;100.00;99202.44;1524294;94;21147;-69
2022/03/09 10:29:14;;;;;;;35.63;21.17;;;;;;;-1.77;100.00;99195.34;1525171;94;21196;-69
2022/03/09 10:31:44;;;;;;;32.37;19.50;;;;;;;-1.75;100.00;99193.45;1484286;95;21072;-69
2022/03/09 10:34:16;;;;;;;33.80;19.97;;;;;;;-1.78;100.00;99184.39;1465225;98;21542;-68
2022/03/09 10:36:55;;;;;;;32.90;20.73;;;;;;;-1.83;100.00;99183.39;1436750;99;21097;-69
2022/03/09 10:39:24;;;;;;;30.97;20.33;;;;;;;-1.85;100.00;99188.45;1443512;99;21134;-69
2022/03/09 10:41:52;;;;;;;44.60;23.67;;;;;;;-1.96;100.00;99185.27;1444294;99;22295;-68
2022/03/09 10:44:19;;;;;;;63.60;29.93;;;;;;;-1.97;100.00;99187.55;1416726;101;21107;-69
2022/03/09 10:46:50;;;;;;;45.20;23.33;;;;;;;-1.99;100.00;99185.48;1420417;100;21103;-68
2022/03/09 10:49:21;;;;;;;47.30;26.70;;;;;;;-1.97;100.00;99181.76;1428708;100;21218;-68
2022/03/09 10:51:50;;;;;;;45.07;24.27;;;;;;;-1.97;100.00;99183.08;1450720;99;21138;-69
2022/03/09 10:54:23;;;;;;;41.53;22.70;;;;;;;-1.97;100.00;99182.25;1420545;100;21119;-68
2022/03/09 10:56:53;;;;;;;50.00;25.90;;;;;;;-1.93;100.00;99176.63;1430201;97;21608;-71
2022/03/09 10:59:24;;;;;;;48.43;27.00;;;;;;;-1.89;100.00;99173.27;1482181;97;21113;-70
2022/03/09 11:02:05;;;;;;;59.17;31.00;;;;;;;-1.84;100.00;99172.45;1473162;97;21536;-71
2022/03/09 11:04:32;;;;;;;39.33;23.33;;;;;;;-1.88;100.00;99178.08;1493339;96;21146;-71
2022/03/09 11:06:59;;;;;;;35.70;20.93;;;;;;;-1.93;100.00;99177.94;1493644;96;21058;-71
2022/03/09 11:09:27;;;;;;;32.97;20.87;;;;;;;-1.96;100.00;99179.97;1493126;96;21166;-69
2022/03/09 11:11:55;;;;;;;58.63;38.63;;;;;;;-2.01;100.00;99176.33;1493296;96;21704;-70
2022/03/09 11:14:25;;;;;;;31.93;20.53;;;;;;;-2.01;100.00;99173.67;1493370;95;21158;-71
2022/03/09 11:16:51;;;;;;;32.37;20.80;;;;;;;-2.00;100.00;99172.73;1506057;95;21559;-71
2022/03/09 11:19:19;;;;;;;32.80;20.70;;;;;;;-2.06;100.00;99177.14;1512585;95;21206;-71
2022/03/09 11:21:47;;;;;;;34.50;21.23;;;;;;;-2.08;100.00;99164.98;1473948;97;21162;-70
2022/03/09 11:24:15;;;;;;;34.97;21.53;;;;;;;-2.04;100.00;99173.05;1539443;92;21148;-71